sensor_id;sensor_type;location;lat;lon;timestamp;P1;durP1;ratioP1;P2;durP2;ratioP2
3293;SDS011;1659;51.470;6.770;2023-12-20T00:00:34;34.43;;;14.90;;
3293;SDS011;1659;51.470;6.770;2023-12-20T00:03:02;33.10;;;14.70;;
3293;SDS011;1659;51.470;6.770;2023-12-20T00:05:29;36.73;;;15.27;;
3293;SDS011;1659;51.470;6.770;2023-12-20T00:07:57;28.97;;;13.20;;
3293;SDS011;1659;51.470;6.770;2023-12-20T00:10:23;38.93;;;13.80;;
3293;SDS011;1659;51.470;6.770;2023-12-20T00:12:50;32.80;;;14.00;;
3293;SDS011;1659;51.470;6.770;2023-12-20T00:15:18;35.33;;;13.40;;
3293;SDS011;1659;51.470;6.770;2023-12-20T00:17:44;35.80;;;12.67;;
3293;SDS011;1659;51.470;6.770;2023-12-20T00:20:11;34.17;;;13.70;;
3293;SDS011;1659;51.470;6.770;2023-12-20T00:22:38;33.47;;;13.13;;
3293;SDS011;1659;51.470;6.770;2023-12-20T00:25:05;33.03;;;13.57;;
3293;SDS011;1659;51.470;6.770;2023-12-20T00:27:32;33.80;;;11.87;;
3293;SDS011;1659;51.470;6.770;2023-12-20T00:29:59;30.13;;;12.50;;
3293;SDS011;1659;51.470;6.770;2023-12-20T00:32:27;34.10;;;12.87;;
3293;SDS011;1659;51.470;6.770;2023-12-20T00:34:53;34.27;;;12.30;;
3293;SDS011;1659;51.470;6.770;2023-12-20T00:37:20;28.40;;;12.90;;
3293;SDS011;1659;51.470;6.770;2023-12-20T00:39:46;26.80;;;12.43;;
3293;SDS011;1659;51.470;6.770;2023-12-20T00:42:13;25.50;;;10.90;;
3293;SDS011;1659;51.470;6.770;2023-12-20T00:44:40;33.47;;;13.07;;
3293;SDS011;1659;51.470;6.770;2023-12-20T00:47:06;26.97;;;10.43;;
3293;SDS011;1659;51.470;6.770;2023-12-20T00:49:34;29.47;;;11.80;;
3293;SDS011;1659;51.470;6.770;2023-12-20T00:52:01;33.23;;;12.00;;
3293;SDS011;1659;51.470;6.770;2023-12-20T00:54:27;35.43;;;11.43;;
3293;SDS011;1659;51.470;6.770;2023-12-20T00:56:55;32.37;;;11.27;;
3293;SDS011;1659;51.470;6.770;2023-12-20T00:59:22;34.10;;;11.13;;
3293;SDS011;1659;51.470;6.770;2023-12-20T01:01:48;30.60;;;10.47;;
3293;SDS011;1659;51.470;6.770;2023-12-20T01:04:15;25.60;;;9.83;;
3293;SDS011;1659;51.470;6.770;2023-12-20T01:06:43;25.80;;;11.20;;
3293;SDS011;1659;51.470;6.770;2023-12-20T01:09:10;36.70;;;10.73;;
3293;SDS011;1659;51.470;6.770;2023-12-20T01:11:37;33.60;;;13.07;;
3293;SDS011;1659;51.470;6.770;2023-12-20T01:14:03;26.00;;;12.00;;
3293;SDS011;1659;51.470;6.770;2023-12-20T01:16:30;28.10;;;11.20;;
3293;SDS011;1659;51.470;6.770;2023-12-20T01:18:56;41.47;;;13.63;;
3293;SDS011;1659;51.470;6.770;2023-12-20T01:21:23;29.70;;;12.70;;
3293;SDS011;1659;51.470;6.770;2023-12-20T01:23:51;27.63;;;12.17;;
3293;SDS011;1659;51.470;6.770;2023-12-20T01:26:18;30.90;;;12.70;;
3293;SDS011;1659;51.470;6.770;2023-12-20T01:28:45;20.63;;;10.20;;
3293;SDS011;1659;51.470;6.770;2023-12-20T01:31:11;30.53;;;12.80;;
3293;SDS011;1659;51.470;6.770;2023-12-20T01:33:38;33.83;;;13.93;;
3293;SDS011;1659;51.470;6.770;2023-12-20T01:36:04;36.20;;;13.67;;
3293;SDS011;1659;51.470;6.770;2023-12-20T01:38:31;28.07;;;12.00;;
3293;SDS011;1659;51.470;6.770;2023-12-20T01:40:59;22.30;;;9.97;;
3293;SDS011;1659;51.470;6.770;2023-12-20T01:43:26;28.07;;;11.63;;
3293;SDS011;1659;51.470;6.770;2023-12-20T01:45:52;24.83;;;9.50;;
3293;SDS011;1659;51.470;6.770;2023-12-20T01:48:20;28.77;;;9.77;;
3293;SDS011;1659;51.470;6.770;2023-12-20T01:50:47;23.40;;;9.57;;
3293;SDS011;1659;51.470;6.770;2023-12-20T01:53:14;23.47;;;10.13;;
3293;SDS011;1659;51.470;6.770;2023-12-20T01:55:42;25.67;;;10.57;;
3293;SDS011;1659;51.470;6.770;2023-12-20T01:58:10;21.67;;;9.77;;
3293;SDS011;1659;51.470;6.770;2023-12-20T02:00:39;24.53;;;9.00;;
3293;SDS011;1659;51.470;6.770;2023-12-20T02:03:06;21.77;;;9.87;;
3293;SDS011;1659;51.470;6.770;2023-12-20T02:05:33;23.20;;;10.40;;
3293;SDS011;1659;51.470;6.770;2023-12-20T02:08:01;28.53;;;10.37;;
3293;SDS011;1659;51.470;6.770;2023-12-20T02:10:27;24.87;;;10.03;;
3293;SDS011;1659;51.470;6.770;2023-12-20T02:12:54;30.90;;;10.03;;
3293;SDS011;1659;51.470;6.770;2023-12-20T02:15:22;26.83;;;11.00;;
3293;SDS011;1659;51.470;6.770;2023-12-20T02:17:49;20.77;;;9.80;;
3293;SDS011;1659;51.470;6.770;2023-12-20T02:20:16;31.80;;;13.10;;
3293;SDS011;1659;51.470;6.770;2023-12-20T02:22:44;31.13;;;11.77;;
3293;SDS011;1659;51.470;6.770;2023-12-20T02:25:11;33.50;;;11.43;;
3293;SDS011;1659;51.470;6.770;2023-12-20T02:27:37;24.07;;;11.37;;
3293;SDS011;1659;51.470;6.770;2023-12-20T02:30:06;35.10;;;12.27;;
3293;SDS011;1659;51.470;6.770;2023-12-20T02:32:33;27.00;;;12.07;;
3293;SDS011;1659;51.470;6.770;2023-12-20T02:35:00;25.97;;;12.10;;
3293;SDS011;1659;51.470;6.770;2023-12-20T02:37:26;38.83;;;12.17;;
3293;SDS011;1659;51.470;6.770;2023-12-20T02:39:54;26.53;;;11.27;;
3293;SDS011;1659;51.470;6.770;2023-12-20T02:42:21;31.70;;;11.93;;
3293;SDS011;1659;51.470;6.770;2023-12-20T02:44:47;27.00;;;10.43;;
3293;SDS011;1659;51.470;6.770;2023-12-20T02:47:14;21.37;;;11.00;;
3293;SDS011;1659;51.470;6.770;2023-12-20T02:49:40;30.53;;;10.60;;
3293;SDS011;1659;51.470;6.770;2023-12-20T02:52:07;26.33;;;10.77;;
3293;SDS011;1659;51.470;6.770;2023-12-20T02:54:34;30.70;;;9.50;;
3293;SDS011;1659;51.470;6.770;2023-12-20T02:57:02;26.23;;;10.53;;
3293;SDS011;1659;51.470;6.770;2023-12-20T02:59:28;23.37;;;10.67;;
3293;SDS011;1659;51.470;6.770;2023-12-20T03:01:55;23.40;;;7.53;;
3293;SDS011;1659;51.470;6.770;2023-12-20T03:04:21;21.30;;;7.87;;
3293;SDS011;1659;51.470;6.770;2023-12-20T03:06:48;16.17;;;7.07;;
3293;SDS011;1659;51.470;6.770;2023-12-20T03:09:14;14.50;;;6.00;;
3293;SDS011;1659;51.470;6.770;2023-12-20T03:11:41;31.37;;;8.10;;
3293;SDS011;1659;51.470;6.770;2023-12-20T03:14:09;15.80;;;5.70;;
3293;SDS011;1659;51.470;6.770;2023-12-20T03:16:36;15.13;;;5.80;;
3293;SDS011;1659;51.470;6.770;2023-12-20T03:19:02;22.43;;;6.80;;
3293;SDS011;1659;51.470;6.770;2023-12-20T03:21:29;11.97;;;5.60;;
3293;SDS011;1659;51.470;6.770;2023-12-20T03:23:55;20.13;;;7.13;;
3293;SDS011;1659;51.470;6.770;2023-12-20T03:26:22;25.23;;;6.33;;
3293;SDS011;1659;51.470;6.770;2023-12-20T03:28:49;14.00;;;6.53;;
3293;SDS011;1659;51.470;6.770;2023-12-20T03:31:17;20.43;;;6.43;;
3293;SDS011;1659;51.470;6.770;2023-12-20T03:33:43;24.80;;;7.33;;
3293;SDS011;1659;51.470;6.770;2023-12-20T03:36:10;18.77;;;7.07;;
3293;SDS011;1659;51.470;6.770;2023-12-20T03:38:36;18.57;;;6.87;;
3293;SDS011;1659;51.470;6.770;2023-12-20T03:41:03;18.03;;;6.13;;
3293;SDS011;1659;51.470;6.770;2023-12-20T03:43:30;15.40;;;6.00;;
3293;SDS011;1659;51.470;6.770;2023-12-20T03:45:57;12.37;;;5.20;;
3293;SDS011;1659;51.470;6.770;2023-12-20T03:48:25;17.30;;;6.63;;
3293;SDS011;1659;51.470;6.770;2023-12-20T03:50:51;11.40;;;6.30;;
3293;SDS011;1659;51.470;6.770;2023-12-20T03:53:18;21.43;;;6.43;;
3293;SDS011;1659;51.470;6.770;2023-12-20T03:55:44;12.23;;;5.40;;
3293;SDS011;1659;51.470;6.770;2023-12-20T03:58:11;9.90;;;5.10;;
3293;SDS011;1659;51.470;6.770;2023-12-20T04:00:37;19.10;;;5.53;;
3293;SDS011;1659;51.470;6.770;2023-12-20T04:03:04;23.40;;;4.80;;
3293;SDS011;1659;51.470;6.770;2023-12-20T04:05:32;15.23;;;5.60;;
3293;SDS011;1659;51.470;6.770;2023-12-20T04:07:59;23.77;;;6.30;;
3293;SDS011;1659;51.470;6.770;2023-12-20T04:10:26;34.77;;;7.10;;
3293;SDS011;1659;51.470;6.770;2023-12-20T04:12:53;10.23;;;5.33;;
3293;SDS011;1659;51.470;6.770;2023-12-20T04:15:20;17.77;;;5.00;;
3293;SDS011;1659;51.470;6.770;2023-12-20T04:17:46;14.10;;;4.73;;
3293;SDS011;1659;51.470;6.770;2023-12-20T04:20:13;21.83;;;6.00;;
3293;SDS011;1659;51.470;6.770;2023-12-20T04:22:41;16.90;;;5.43;;
3293;SDS011;1659;51.470;6.770;2023-12-20T04:25:08;20.67;;;6.50;;
3293;SDS011;1659;51.470;6.770;2023-12-20T04:27:34;23.60;;;10.20;;
3293;SDS011;1659;51.470;6.770;2023-12-20T04:30:01;26.13;;;7.50;;
3293;SDS011;1659;51.470;6.770;2023-12-20T04:32:28;20.33;;;6.20;;
3293;SDS011;1659;51.470;6.770;2023-12-20T04:34:54;42.10;;;12.17;;
3293;SDS011;1659;51.470;6.770;2023-12-20T04:37:20;19.90;;;8.23;;
3293;SDS011;1659;51.470;6.770;2023-12-20T04:39:47;22.80;;;7.70;;
3293;SDS011;1659;51.470;6.770;2023-12-20T04:42:15;23.77;;;8.13;;
3293;SDS011;1659;51.470;6.770;2023-12-20T04:44:41;21.37;;;8.50;;
3293;SDS011;1659;51.470;6.770;2023-12-20T04:47:08;23.43;;;7.43;;
3293;SDS011;1659;51.470;6.770;2023-12-20T04:49:35;17.80;;;6.43;;
3293;SDS011;1659;51.470;6.770;2023-12-20T04:52:02;31.70;;;7.43;;
3293;SDS011;1659;51.470;6.770;2023-12-20T04:54:29;21.13;;;6.10;;
3293;SDS011;1659;51.470;6.770;2023-12-20T04:56:56;20.60;;;6.30;;
3293;SDS011;1659;51.470;6.770;2023-12-20T04:59:23;31.03;;;8.80;;
3293;SDS011;1659;51.470;6.770;2023-12-20T05:01:49;24.60;;;7.53;;
3293;SDS011;1659;51.470;6.770;2023-12-20T05:04:16;17.13;;;8.00;;
3293;SDS011;1659;51.470;6.770;2023-12-20T05:06:43;21.67;;;8.70;;
3293;SDS011;1659;51.470;6.770;2023-12-20T05:09:09;28.63;;;9.90;;
3293;SDS011;1659;51.470;6.770;2023-12-20T05:11:36;26.27;;;10.87;;
3293;SDS011;1659;51.470;6.770;2023-12-20T05:14:04;32.67;;;11.67;;
3293;SDS011;1659;51.470;6.770;2023-12-20T05:16:30;35.23;;;11.57;;
3293;SDS011;1659;51.470;6.770;2023-12-20T05:18:57;24.93;;;11.20;;
3293;SDS011;1659;51.470;6.770;2023-12-20T05:21:25;31.37;;;12.17;;
3293;SDS011;1659;51.470;6.770;2023-12-20T05:23:52;31.10;;;11.90;;
3293;SDS011;1659;51.470;6.770;2023-12-20T05:26:19;31.27;;;13.60;;
3293;SDS011;1659;51.470;6.770;2023-12-20T05:28:45;41.80;;;13.60;;
3293;SDS011;1659;51.470;6.770;2023-12-20T05:31:13;26.53;;;10.67;;
3293;SDS011;1659;51.470;6.770;2023-12-20T05:33:39;56.90;;;14.93;;
3293;SDS011;1659;51.470;6.770;2023-12-20T05:36:06;30.27;;;11.90;;
3293;SDS011;1659;51.470;6.770;2023-12-20T05:38:36;41.67;;;11.93;;
3293;SDS011;1659;51.470;6.770;2023-12-20T05:41:02;25.10;;;11.13;;
3293;SDS011;1659;51.470;6.770;2023-12-20T05:43:29;33.93;;;9.60;;
3293;SDS011;1659;51.470;6.770;2023-12-20T05:45:56;31.03;;;12.40;;
3293;SDS011;1659;51.470;6.770;2023-12-20T05:48:24;27.27;;;9.73;;
3293;SDS011;1659;51.470;6.770;2023-12-20T05:50:51;33.47;;;10.50;;
3293;SDS011;1659;51.470;6.770;2023-12-20T05:53:17;32.93;;;10.67;;
3293;SDS011;1659;51.470;6.770;2023-12-20T05:55:44;26.47;;;8.70;;
3293;SDS011;1659;51.470;6.770;2023-12-20T05:58:10;26.63;;;9.40;;
3293;SDS011;1659;51.470;6.770;2023-12-20T06:00:37;32.10;;;8.47;;
3293;SDS011;1659;51.470;6.770;2023-12-20T06:03:04;35.17;;;10.77;;
3293;SDS011;1659;51.470;6.770;2023-12-20T06:05:32;25.17;;;9.10;;
3293;SDS011;1659;51.470;6.770;2023-12-20T06:07:58;28.53;;;9.37;;
3293;SDS011;1659;51.470;6.770;2023-12-20T06:10:27;28.60;;;9.37;;
3293;SDS011;1659;51.470;6.770;2023-12-20T06:12:54;14.83;;;8.17;;
3293;SDS011;1659;51.470;6.770;2023-12-20T06:15:21;19.83;;;7.97;;
3293;SDS011;1659;51.470;6.770;2023-12-20T06:17:48;21.07;;;9.40;;
3293;SDS011;1659;51.470;6.770;2023-12-20T06:20:15;28.23;;;9.60;;
3293;SDS011;1659;51.470;6.770;2023-12-20T06:22:42;25.20;;;8.03;;
3293;SDS011;1659;51.470;6.770;2023-12-20T06:25:10;22.70;;;7.87;;
3293;SDS011;1659;51.470;6.770;2023-12-20T06:27:37;32.43;;;10.30;;
3293;SDS011;1659;51.470;6.770;2023-12-20T06:30:04;32.07;;;10.20;;
3293;SDS011;1659;51.470;6.770;2023-12-20T06:32:31;22.67;;;9.50;;
3293;SDS011;1659;51.470;6.770;2023-12-20T06:34:59;25.53;;;8.80;;
3293;SDS011;1659;51.470;6.770;2023-12-20T06:37:25;29.20;;;9.50;;
3293;SDS011;1659;51.470;6.770;2023-12-20T06:39:53;25.83;;;10.70;;
3293;SDS011;1659;51.470;6.770;2023-12-20T06:42:21;23.67;;;9.23;;
3293;SDS011;1659;51.470;6.770;2023-12-20T06:44:47;22.27;;;8.33;;
3293;SDS011;1659;51.470;6.770;2023-12-20T06:47:14;31.33;;;8.67;;
3293;SDS011;1659;51.470;6.770;2023-12-20T06:49:41;18.23;;;8.53;;
3293;SDS011;1659;51.470;6.770;2023-12-20T06:52:07;23.93;;;8.33;;
3293;SDS011;1659;51.470;6.770;2023-12-20T06:54:34;27.77;;;9.10;;
3293;SDS011;1659;51.470;6.770;2023-12-20T06:57:02;26.07;;;9.93;;
3293;SDS011;1659;51.470;6.770;2023-12-20T06:59:29;32.30;;;10.83;;
3293;SDS011;1659;51.470;6.770;2023-12-20T07:01:56;27.10;;;11.10;;
3293;SDS011;1659;51.470;6.770;2023-12-20T07:04:22;35.40;;;11.83;;
3293;SDS011;1659;51.470;6.770;2023-12-20T07:06:49;31.77;;;10.40;;
3293;SDS011;1659;51.470;6.770;2023-12-20T07:09:17;33.37;;;9.33;;
3293;SDS011;1659;51.470;6.770;2023-12-20T07:11:43;32.37;;;7.67;;
3293;SDS011;1659;51.470;6.770;2023-12-20T07:14:11;25.60;;;10.40;;
3293;SDS011;1659;51.470;6.770;2023-12-20T07:16:38;45.13;;;12.37;;
3293;SDS011;1659;51.470;6.770;2023-12-20T07:19:04;28.67;;;10.17;;
3293;SDS011;1659;51.470;6.770;2023-12-20T07:21:31;31.00;;;11.23;;
3293;SDS011;1659;51.470;6.770;2023-12-20T07:23:57;29.70;;;11.63;;
3293;SDS011;1659;51.470;6.770;2023-12-20T07:26:24;25.50;;;8.10;;
3293;SDS011;1659;51.470;6.770;2023-12-20T07:28:50;29.10;;;9.20;;
3293;SDS011;1659;51.470;6.770;2023-12-20T07:31:18;22.40;;;8.10;;
3293;SDS011;1659;51.470;6.770;2023-12-20T07:33:45;19.37;;;7.10;;
3293;SDS011;1659;51.470;6.770;2023-12-20T07:36:12;25.77;;;7.87;;
3293;SDS011;1659;51.470;6.770;2023-12-20T07:38:38;33.07;;;10.03;;
3293;SDS011;1659;51.470;6.770;2023-12-20T07:41:08;43.13;;;13.53;;
3293;SDS011;1659;51.470;6.770;2023-12-20T07:43:35;44.03;;;12.17;;
3293;SDS011;1659;51.470;6.770;2023-12-20T07:46:05;31.30;;;8.40;;
3293;SDS011;1659;51.470;6.770;2023-12-20T07:48:33;18.60;;;6.90;;
3293;SDS011;1659;51.470;6.770;2023-12-20T07:51:01;18.70;;;7.97;;
3293;SDS011;1659;51.470;6.770;2023-12-20T07:53:27;29.10;;;8.17;;
3293;SDS011;1659;51.470;6.770;2023-12-20T07:55:55;21.43;;;9.00;;
3293;SDS011;1659;51.470;6.770;2023-12-20T07:58:21;16.23;;;8.30;;
3293;SDS011;1659;51.470;6.770;2023-12-20T08:00:48;15.77;;;7.43;;
3293;SDS011;1659;51.470;6.770;2023-12-20T08:03:14;15.30;;;8.30;;
3293;SDS011;1659;51.470;6.770;2023-12-20T08:05:42;24.60;;;11.50;;
3293;SDS011;1659;51.470;6.770;2023-12-20T08:08:09;27.93;;;9.23;;
3293;SDS011;1659;51.470;6.770;2023-12-20T08:10:35;26.23;;;9.13;;
3293;SDS011;1659;51.470;6.770;2023-12-20T08:13:02;19.23;;;7.87;;
3293;SDS011;1659;51.470;6.770;2023-12-20T08:15:29;23.43;;;9.23;;
3293;SDS011;1659;51.470;6.770;2023-12-20T08:17:55;27.93;;;10.87;;
3293;SDS011;1659;51.470;6.770;2023-12-20T08:20:22;20.97;;;7.03;;
3293;SDS011;1659;51.470;6.770;2023-12-20T08:22:50;17.70;;;7.67;;
3293;SDS011;1659;51.470;6.770;2023-12-20T08:25:16;15.43;;;7.07;;
3293;SDS011;1659;51.470;6.770;2023-12-20T08:27:43;23.30;;;8.73;;
3293;SDS011;1659;51.470;6.770;2023-12-20T08:30:10;19.10;;;7.57;;
3293;SDS011;1659;51.470;6.770;2023-12-20T08:32:37;17.07;;;6.83;;
3293;SDS011;1659;51.470;6.770;2023-12-20T08:35:04;19.53;;;8.10;;
3293;SDS011;1659;51.470;6.770;2023-12-20T08:37:31;13.90;;;7.00;;
3293;SDS011;1659;51.470;6.770;2023-12-20T08:39:59;16.43;;;6.73;;
3293;SDS011;1659;51.470;6.770;2023-12-20T08:42:25;19.57;;;8.07;;
3293;SDS011;1659;51.470;6.770;2023-12-20T08:44:56;26.57;;;7.63;;
3293;SDS011;1659;51.470;6.770;2023-12-20T08:47:22;19.80;;;6.33;;
3293;SDS011;1659;51.470;6.770;2023-12-20T08:49:49;15.17;;;5.43;;
3293;SDS011;1659;51.470;6.770;2023-12-20T08:52:15;19.07;;;5.97;;
3293;SDS011;1659;51.470;6.770;2023-12-20T08:54:42;12.63;;;5.70;;
3293;SDS011;1659;51.470;6.770;2023-12-20T08:57:10;21.77;;;5.73;;
3293;SDS011;1659;51.470;6.770;2023-12-20T08:59:37;11.70;;;5.13;;
3293;SDS011;1659;51.470;6.770;2023-12-20T09:02:03;18.27;;;5.80;;
3293;SDS011;1659;51.470;6.770;2023-12-20T09:04:30;10.90;;;5.70;;
3293;SDS011;1659;51.470;6.770;2023-12-20T09:06:59;21.60;;;7.90;;
3293;SDS011;1659;51.470;6.770;2023-12-20T09:09:26;24.90;;;8.00;;
3293;SDS011;1659;51.470;6.770;2023-12-20T09:11:52;24.33;;;6.63;;
3293;SDS011;1659;51.470;6.770;2023-12-20T09:14:20;19.93;;;6.40;;
3293;SDS011;1659;51.470;6.770;2023-12-20T09:16:47;19.23;;;6.90;;
3293;SDS011;1659;51.470;6.770;2023-12-20T09:19:18;27.37;;;6.30;;
3293;SDS011;1659;51.470;6.770;2023-12-20T09:21:44;15.40;;;5.67;;
3293;SDS011;1659;51.470;6.770;2023-12-20T09:24:11;17.33;;;7.03;;
3293;SDS011;1659;51.470;6.770;2023-12-20T09:26:37;25.07;;;8.50;;
3293;SDS011;1659;51.470;6.770;2023-12-20T09:29:05;20.93;;;7.40;;
3293;SDS011;1659;51.470;6.770;2023-12-20T09:31:34;10.47;;;6.40;;
3293;SDS011;1659;51.470;6.770;2023-12-20T09:34:02;14.63;;;6.70;;
3293;SDS011;1659;51.470;6.770;2023-12-20T09:36:29;24.90;;;7.17;;
3293;SDS011;1659;51.470;6.770;2023-12-20T09:38:56;15.43;;;5.93;;
3293;SDS011;1659;51.470;6.770;2023-12-20T09:41:23;20.13;;;7.80;;
3293;SDS011;1659;51.470;6.770;2023-12-20T09:43:51;16.13;;;7.83;;
3293;SDS011;1659;51.470;6.770;2023-12-20T09:46:20;18.47;;;7.57;;
3293;SDS011;1659;51.470;6.770;2023-12-20T09:48:51;18.10;;;7.80;;
3293;SDS011;1659;51.470;6.770;2023-12-20T09:51:19;19.00;;;9.07;;
3293;SDS011;1659;51.470;6.770;2023-12-20T09:53:47;18.17;;;7.13;;
3293;SDS011;1659;51.470;6.770;2023-12-20T09:56:14;21.40;;;7.87;;
3293;SDS011;1659;51.470;6.770;2023-12-20T09:58:41;42.87;;;10.00;;
3293;SDS011;1659;51.470;6.770;2023-12-20T10:01:08;18.33;;;8.47;;
3293;SDS011;1659;51.470;6.770;2023-12-20T10:03:34;19.73;;;8.00;;
3293;SDS011;1659;51.470;6.770;2023-12-20T10:06:05;17.90;;;6.50;;
3293;SDS011;1659;51.470;6.770;2023-12-20T10:08:32;16.33;;;5.27;;
3293;SDS011;1659;51.470;6.770;2023-12-20T10:10:59;25.13;;;6.70;;
3293;SDS011;1659;51.470;6.770;2023-12-20T10:13:27;10.57;;;5.63;;
3293;SDS011;1659;51.470;6.770;2023-12-20T10:15:54;21.70;;;6.50;;
3293;SDS011;1659;51.470;6.770;2023-12-20T10:18:22;20.47;;;6.23;;
3293;SDS011;1659;51.470;6.770;2023-12-20T10:20:49;16.10;;;7.13;;
3293;SDS011;1659;51.470;6.770;2023-12-20T10:23:16;26.80;;;7.50;;
3293;SDS011;1659;51.470;6.770;2023-12-20T10:25:43;18.37;;;6.40;;
3293;SDS011;1659;51.470;6.770;2023-12-20T10:28:21;18.60;;;6.47;;
3293;SDS011;1659;51.470;6.770;2023-12-20T10:30:52;14.93;;;7.17;;
3293;SDS011;1659;51.470;6.770;2023-12-20T10:33:23;11.90;;;8.20;;
3293;SDS011;1659;51.470;6.770;2023-12-20T10:35:50;11.17;;;6.53;;
3293;SDS011;1659;51.470;6.770;2023-12-20T10:38:19;20.50;;;7.47;;
3293;SDS011;1659;51.470;6.770;2023-12-20T10:40:46;16.63;;;6.60;;
3293;SDS011;1659;51.470;6.770;2023-12-20T10:43:14;15.47;;;6.63;;
3293;SDS011;1659;51.470;6.770;2023-12-20T10:45:41;19.80;;;7.30;;
3293;SDS011;1659;51.470;6.770;2023-12-20T10:48:09;20.80;;;6.90;;
3293;SDS011;1659;51.470;6.770;2023-12-20T10:50:36;19.70;;;6.47;;
3293;SDS011;1659;51.470;6.770;2023-12-20T10:53:05;22.37;;;6.83;;
3293;SDS011;1659;51.470;6.770;2023-12-20T10:55:34;11.00;;;7.03;;
3293;SDS011;1659;51.470;6.770;2023-12-20T10:58:01;16.67;;;7.27;;
3293;SDS011;1659;51.470;6.770;2023-12-20T11:00:31;16.63;;;6.53;;
3293;SDS011;1659;51.470;6.770;2023-12-20T11:02:59;13.93;;;6.20;;
3293;SDS011;1659;51.470;6.770;2023-12-20T11:05:29;32.50;;;8.30;;
3293;SDS011;1659;51.470;6.770;2023-12-20T11:08:01;12.67;;;5.70;;
3293;SDS011;1659;51.470;6.770;2023-12-20T11:10:31;21.43;;;7.87;;
3293;SDS011;1659;51.470;6.770;2023-12-20T11:13:05;16.43;;;7.20;;
3293;SDS011;1659;51.470;6.770;2023-12-20T11:15:36;20.67;;;7.47;;
3293;SDS011;1659;51.470;6.770;2023-12-20T11:18:03;17.03;;;7.33;;
3293;SDS011;1659;51.470;6.770;2023-12-20T11:20:35;18.50;;;7.70;;
3293;SDS011;1659;51.470;6.770;2023-12-20T11:23:02;25.40;;;7.47;;
3293;SDS011;1659;51.470;6.770;2023-12-20T11:25:30;17.37;;;7.17;;
3293;SDS011;1659;51.470;6.770;2023-12-20T11:28:13;20.73;;;8.00;;
3293;SDS011;1659;51.470;6.770;2023-12-20T11:30:40;16.37;;;7.87;;
3293;SDS011;1659;51.470;6.770;2023-12-20T11:33:08;16.50;;;7.37;;
3293;SDS011;1659;51.470;6.770;2023-12-20T11:35:34;21.50;;;8.47;;
3293;SDS011;1659;51.470;6.770;2023-12-20T11:38:02;21.80;;;8.50;;
3293;SDS011;1659;51.470;6.770;2023-12-20T11:40:29;16.37;;;8.70;;
3293;SDS011;1659;51.470;6.770;2023-12-20T11:43:00;15.50;;;8.03;;
3293;SDS011;1659;51.470;6.770;2023-12-20T11:45:29;29.13;;;8.20;;
3293;SDS011;1659;51.470;6.770;2023-12-20T11:47:57;24.93;;;10.50;;
3293;SDS011;1659;51.470;6.770;2023-12-20T11:50:24;18.43;;;7.10;;
3293;SDS011;1659;51.470;6.770;2023-12-20T11:52:52;15.10;;;7.30;;
3293;SDS011;1659;51.470;6.770;2023-12-20T11:55:20;13.73;;;7.10;;
3293;SDS011;1659;51.470;6.770;2023-12-20T11:57:47;18.43;;;9.40;;
3293;SDS011;1659;51.470;6.770;2023-12-20T12:00:14;29.53;;;9.60;;
3293;SDS011;1659;51.470;6.770;2023-12-20T12:02:42;26.07;;;8.70;;
3293;SDS011;1659;51.470;6.770;2023-12-20T12:05:09;38.20;;;9.67;;
3293;SDS011;1659;51.470;6.770;2023-12-20T12:07:35;20.03;;;9.60;;
3293;SDS011;1659;51.470;6.770;2023-12-20T12:10:02;26.17;;;8.60;;
3293;SDS011;1659;51.470;6.770;2023-12-20T12:12:29;26.07;;;9.03;;
3293;SDS011;1659;51.470;6.770;2023-12-20T12:14:57;22.00;;;10.20;;
3293;SDS011;1659;51.470;6.770;2023-12-20T12:17:24;17.60;;;8.80;;
3293;SDS011;1659;51.470;6.770;2023-12-20T12:19:52;20.27;;;9.10;;
3293;SDS011;1659;51.470;6.770;2023-12-20T12:22:28;19.77;;;8.47;;
3293;SDS011;1659;51.470;6.770;2023-12-20T12:24:55;25.00;;;8.97;;
3293;SDS011;1659;51.470;6.770;2023-12-20T12:27:27;18.73;;;8.07;;
3293;SDS011;1659;51.470;6.770;2023-12-20T12:30:00;20.93;;;7.40;;
3293;SDS011;1659;51.470;6.770;2023-12-20T12:32:28;39.63;;;7.90;;
3293;SDS011;1659;51.470;6.770;2023-12-20T12:34:56;19.77;;;8.03;;
3293;SDS011;1659;51.470;6.770;2023-12-20T12:37:23;19.73;;;9.67;;
3293;SDS011;1659;51.470;6.770;2023-12-20T12:39:52;24.70;;;9.20;;
3293;SDS011;1659;51.470;6.770;2023-12-20T12:42:19;25.20;;;8.40;;
3293;SDS011;1659;51.470;6.770;2023-12-20T12:44:46;25.50;;;9.23;;
3293;SDS011;1659;51.470;6.770;2023-12-20T12:47:13;20.23;;;9.10;;
3293;SDS011;1659;51.470;6.770;2023-12-20T12:49:40;18.50;;;7.20;;
3293;SDS011;1659;51.470;6.770;2023-12-20T12:52:08;17.63;;;7.97;;
3293;SDS011;1659;51.470;6.770;2023-12-20T12:54:34;22.30;;;8.67;;
3293;SDS011;1659;51.470;6.770;2023-12-20T12:57:01;22.83;;;9.63;;
3293;SDS011;1659;51.470;6.770;2023-12-20T12:59:28;27.13;;;11.57;;
3293;SDS011;1659;51.470;6.770;2023-12-20T13:01:54;19.60;;;8.70;;
3293;SDS011;1659;51.470;6.770;2023-12-20T13:04:22;17.93;;;8.43;;
3293;SDS011;1659;51.470;6.770;2023-12-20T13:06:48;15.77;;;8.47;;
3293;SDS011;1659;51.470;6.770;2023-12-20T13:09:16;20.17;;;6.97;;
3293;SDS011;1659;51.470;6.770;2023-12-20T13:11:44;21.80;;;8.43;;
3293;SDS011;1659;51.470;6.770;2023-12-20T13:14:10;14.03;;;7.17;;
3293;SDS011;1659;51.470;6.770;2023-12-20T13:16:40;27.17;;;8.70;;
3293;SDS011;1659;51.470;6.770;2023-12-20T13:19:06;17.20;;;8.33;;
3293;SDS011;1659;51.470;6.770;2023-12-20T13:21:32;20.73;;;7.87;;
3293;SDS011;1659;51.470;6.770;2023-12-20T13:23:59;17.40;;;9.20;;
3293;SDS011;1659;51.470;6.770;2023-12-20T13:26:27;21.40;;;8.73;;
3293;SDS011;1659;51.470;6.770;2023-12-20T13:28:53;16.13;;;8.30;;
3293;SDS011;1659;51.470;6.770;2023-12-20T13:31:20;26.80;;;10.53;;
3293;SDS011;1659;51.470;6.770;2023-12-20T13:33:46;20.20;;;8.90;;
3293;SDS011;1659;51.470;6.770;2023-12-20T13:36:13;23.77;;;8.90;;
3293;SDS011;1659;51.470;6.770;2023-12-20T13:38:40;19.27;;;8.40;;
3293;SDS011;1659;51.470;6.770;2023-12-20T13:41:06;21.97;;;8.93;;
3293;SDS011;1659;51.470;6.770;2023-12-20T13:43:34;35.60;;;9.50;;
3293;SDS011;1659;51.470;6.770;2023-12-20T13:46:01;27.63;;;11.70;;
3293;SDS011;1659;51.470;6.770;2023-12-20T13:48:27;29.37;;;10.97;;
3293;SDS011;1659;51.470;6.770;2023-12-20T13:50:54;29.60;;;10.13;;
3293;SDS011;1659;51.470;6.770;2023-12-20T13:53:20;37.53;;;12.30;;
3293;SDS011;1659;51.470;6.770;2023-12-20T13:55:47;26.80;;;11.80;;
3293;SDS011;1659;51.470;6.770;2023-12-20T13:58:14;30.23;;;11.33;;
3293;SDS011;1659;51.470;6.770;2023-12-20T14:00:42;18.30;;;9.03;;
3293;SDS011;1659;51.470;6.770;2023-12-20T14:03:09;23.03;;;11.17;;
3293;SDS011;1659;51.470;6.770;2023-12-20T14:05:35;25.77;;;11.63;;
3293;SDS011;1659;51.470;6.770;2023-12-20T14:08:02;21.80;;;10.43;;
3293;SDS011;1659;51.470;6.770;2023-12-20T14:10:29;23.80;;;11.93;;
3293;SDS011;1659;51.470;6.770;2023-12-20T14:12:56;26.93;;;11.67;;
3293;SDS011;1659;51.470;6.770;2023-12-20T14:15:22;20.30;;;11.27;;
3293;SDS011;1659;51.470;6.770;2023-12-20T14:17:51;22.20;;;11.43;;
3293;SDS011;1659;51.470;6.770;2023-12-20T14:20:18;30.47;;;11.87;;
3293;SDS011;1659;51.470;6.770;2023-12-20T14:22:44;20.67;;;10.53;;
3293;SDS011;1659;51.470;6.770;2023-12-20T14:25:12;24.63;;;11.27;;
3293;SDS011;1659;51.470;6.770;2023-12-20T14:27:39;24.67;;;12.30;;
3293;SDS011;1659;51.470;6.770;2023-12-20T14:30:06;21.67;;;9.80;;
3293;SDS011;1659;51.470;6.770;2023-12-20T14:32:34;21.57;;;10.13;;
3293;SDS011;1659;51.470;6.770;2023-12-20T14:35:04;26.70;;;10.83;;
3293;SDS011;1659;51.470;6.770;2023-12-20T14:37:33;26.40;;;9.83;;
3293;SDS011;1659;51.470;6.770;2023-12-20T14:40:00;33.40;;;10.20;;
3293;SDS011;1659;51.470;6.770;2023-12-20T14:42:26;19.87;;;9.90;;
3293;SDS011;1659;51.470;6.770;2023-12-20T14:44:53;27.60;;;11.30;;
3293;SDS011;1659;51.470;6.770;2023-12-20T14:47:19;24.03;;;12.30;;
3293;SDS011;1659;51.470;6.770;2023-12-20T14:49:46;26.63;;;11.63;;
3293;SDS011;1659;51.470;6.770;2023-12-20T14:52:14;20.87;;;10.40;;
3293;SDS011;1659;51.470;6.770;2023-12-20T14:54:43;28.40;;;10.53;;